»·PEaware :: N8665R KSNA-KSBA

N8665R :: KSNA-KSBA

FLIGHT INFORMATION

Flight Status: Arrived
Operator: Privately registered:
United States
More flights under this callsign
Pilot: Mitchell F. (26966)
Aircraft: PIPER PA-24 COMMANCHE
(PA24)
More flights by this aircraft type
Origin: KSNA John Wayne-Orange Co
United States
Destination: KSBA Santa Barbara Mun
United States
More flights between these airports :: More routes between these airports
Route: SLI V23 LAX V299 VTU VTU282 KWANG
File this flight plan on PilotEdge
Remarks: TEC Route CSTP21
Altitude:
(Current/Filed)
6,000ft
Speed:
(Current/Filed)
150kts
Departed: 03-Jul-20 10:59 AM
Arrived: 03-Jul-20 11:46 AM
Distance/Time
Traveled:
108nm/0:46
Distance/Time
To Go:
Arrived

Flight Plot

Page will automatically refresh every two minutes.


Map Options




Map Legend


Flown Route
Filed Route
Departure Airport
Arrival Airport
Navaid (VOR, NDB)
Fix

Horizontal Profiles

Position Reports

Time Latitude Longitude Heading Altitude Ground
Speed
03-Jul-20 10:35 33.667473 -117.871025 265 59ft 0kts
03-Jul-20 10:36 33.667473 -117.871026 265 59ft 0kts
03-Jul-20 10:37 33.667472 -117.871028 265 59ft 0kts
03-Jul-20 10:38 33.667472 -117.871029 265 59ft 0kts
03-Jul-20 10:39 33.667472 -117.871030 265 59ft 0kts
03-Jul-20 10:40 33.667472 -117.871031 265 59ft 0kts
03-Jul-20 10:41 33.668182 -117.872018 2 59ft 4kts
03-Jul-20 10:42 33.669878 -117.870464 42 59ft 9kts
03-Jul-20 10:43 33.671413 -117.869050 36 59ft 13kts
03-Jul-20 10:44 33.673336 -117.867947 100 59ft 0kts
03-Jul-20 10:45 33.673335 -117.867940 100 59ft 0kts
03-Jul-20 10:46 33.673334 -117.867937 100 59ft 0kts
03-Jul-20 10:47 33.673334 -117.867934 100 59ft 0kts
03-Jul-20 10:48 33.673333 -117.867931 100 59ft 0kts
03-Jul-20 10:49 33.673333 -117.867929 100 59ft 0kts
03-Jul-20 10:50 33.673332 -117.867926 100 59ft 0kts
03-Jul-20 10:51 33.674662 -117.866705 26 59ft 12kts
03-Jul-20 10:52 33.677536 -117.864999 31 59ft 19kts
03-Jul-20 10:53 33.679600 -117.863783 348 59ft 4kts
03-Jul-20 10:54 33.679668 -117.863841 307 59ft 0kts
03-Jul-20 10:55 33.678200 -117.865353 211 59ft 1kts
03-Jul-20 10:56 33.678901 -117.864185 25 59ft 19kts
03-Jul-20 10:57 33.679847 -117.864089 297 59ft 9kts
03-Jul-20 10:58 33.665872 -117.872176 211 513ft 98kts
03-Jul-20 10:59 33.650227 -117.900838 237 1506ft 130kts
03-Jul-20 11:00 33.634403 -117.932806 243 3033ft 110kts
03-Jul-20 11:01 33.617222 -117.963391 235 4227ft 134kts
03-Jul-20 11:02 33.605322 -117.981111 233 4043ft 160kts
03-Jul-20 11:03 33.610835 -118.020588 345 4923ft 136kts
03-Jul-20 11:04 33.640614 -118.036459 318 5147ft 153kts
03-Jul-20 11:05 33.652859 -118.057782 303 5845ft 112kts
03-Jul-20 11:06 33.677402 -118.093788 308 6069ft 138kts
03-Jul-20 11:07 33.709712 -118.125869 342 6023ft 163kts
03-Jul-20 11:08 33.751705 -118.147376 303 6007ft 169kts
03-Jul-20 11:09 33.768786 -118.200231 298 6052ft 180kts
03-Jul-20 11:10 33.803357 -118.243981 316 6022ft 176kts
03-Jul-20 11:11 33.835317 -118.285005 312 6037ft 172kts
03-Jul-20 11:12 33.865488 -118.330845 308 6050ft 171kts
03-Jul-20 11:13 33.894516 -118.375760 306 6023ft 172kts
03-Jul-20 11:14 33.923920 -118.421810 307 6008ft 173kts
03-Jul-20 11:15 33.945004 -118.473560 284 5998ft 168kts
03-Jul-20 11:16 33.961451 -118.524992 293 5994ft 162kts
03-Jul-20 11:17 33.979335 -118.574664 290 5992ft 161kts
03-Jul-20 11:18 33.995219 -118.625057 288 5993ft 161kts
03-Jul-20 11:19 34.010800 -118.675708 289 5994ft 161kts
03-Jul-20 11:20 34.026753 -118.726452 290 5988ft 161kts
03-Jul-20 11:21 34.043375 -118.778307 289 5995ft 170kts
03-Jul-20 11:22 34.057566 -118.832579 285 5986ft 165kts
03-Jul-20 11:23 34.071808 -118.887755 287 5992ft 174kts
03-Jul-20 11:24 34.086202 -118.941492 286 6001ft 164kts
03-Jul-20 11:25 34.100189 -118.993274 287 6003ft 162kts
03-Jul-20 11:26 34.114049 -119.044955 285 6010ft 162kts
03-Jul-20 11:27 34.132582 -119.097207 298 6004ft 170kts
03-Jul-20 11:28 34.156233 -119.146351 298 6010ft 174kts
03-Jul-20 11:29 34.178577 -119.199701 294 6006ft 178kts
03-Jul-20 11:30 34.200568 -119.253747 295 5999ft 178kts
03-Jul-20 11:31 34.223026 -119.307389 295 5494ft 177kts
03-Jul-20 11:32 34.244873 -119.359696 296 4731ft 172kts
03-Jul-20 11:33 34.266334 -119.411055 295 3889ft 169kts
03-Jul-20 11:34 34.285052 -119.456122 295 4006ft 138kts
03-Jul-20 11:35 34.302366 -119.497529 295 4004ft 138kts
03-Jul-20 11:36 34.319258 -119.539782 294 3667ft 138kts
03-Jul-20 11:37 34.336209 -119.583722 294 3219ft 140kts
03-Jul-20 11:38 34.352879 -119.626980 294 2654ft 139kts
03-Jul-20 11:39 34.369307 -119.669333 293 2243ft 135kts
03-Jul-20 11:40 34.385066 -119.710339 293 2167ft 132kts
03-Jul-20 11:41 34.399652 -119.748961 292 1779ft 112kts
03-Jul-20 11:42 34.413510 -119.780749 303 1228ft 99kts
03-Jul-20 11:43 34.427047 -119.806285 281 606ft 83kts
03-Jul-20 11:44 34.427902 -119.831934 268 52ft 69kts
03-Jul-20 11:45 34.427705 -119.844210 268 13ft 21kts
03-Jul-20 11:46 34.428399 -119.846347 1 13ft 8kts
03-Jul-20 11:47 34.429062 -119.846179 14 13ft 0kts
03-Jul-20 11:48 34.429062 -119.846179 14 13ft 0kts
03-Jul-20 11:50 34.429062 -119.846179 14 13ft 0kts
03-Jul-20 11:51 34.429062 -119.846179 14 13ft 0kts
03-Jul-20 11:52 34.429062 -119.846179 14 13ft 0kts
03-Jul-20 11:53 34.429062 -119.846179 14 13ft 0kts
03-Jul-20 11:54 34.429062 -119.846179 14 13ft 0kts
03-Jul-20 11:55 34.429062 -119.846179 14 13ft 0kts
03-Jul-20 11:56 34.429062 -119.846179 14 13ft 0kts
03-Jul-20 11:57 34.429062 -119.846179 14 13ft 0kts
03-Jul-20 11:58 34.429062 -119.846179 14 13ft 0kts
03-Jul-20 11:59 34.429062 -119.846179 14 13ft 0kts
03-Jul-20 12:00 34.429062 -119.846179 14 13ft 0kts

Navigation Log

Ident Type
Flight plan parsing failed, navigation log unavailable